createdAt,value
2019-04-29T00:00:46.706Z,71.05
2019-04-29T00:03:16.007Z,71.41
2019-04-29T00:05:45.373Z,71.33
2019-04-29T00:08:14.620Z,71.04
2019-04-29T00:10:43.922Z,70.82
2019-04-29T00:13:14.042Z,70.49
2019-04-29T00:15:56.327Z,70.25
2019-04-29T00:18:35.553Z,70.27
2019-04-29T00:21:04.822Z,70.33
2019-04-29T00:23:34.063Z,70.58
2019-04-29T00:26:05.134Z,71.03
2019-04-29T00:28:34.857Z,71.30
2019-04-29T00:31:04.218Z,71.07
2019-04-29T00:33:33.852Z,71.40
2019-04-29T00:36:03.106Z,71.76
2019-04-29T00:38:54.667Z,71.81
2019-04-29T00:41:46.314Z,72.80
2019-04-29T00:44:17.628Z,72.35
2019-04-29T00:46:47.261Z,71.94
2019-04-29T00:49:16.860Z,71.56
2019-04-29T00:51:48.217Z,71.23
2019-04-29T00:54:38.232Z,71.01
2019-04-29T00:57:07.815Z,71.10
2019-04-29T00:59:38.478Z,71.42
2019-04-29T01:02:08.524Z,71.39
2019-04-29T01:04:38.176Z,71.36
2019-04-29T01:07:08.642Z,71.15
2019-04-29T01:09:37.876Z,71.18
2019-04-29T01:12:07.651Z,71.48
2019-04-29T01:14:37.011Z,71.61
2019-04-29T01:17:06.279Z,72.05
2019-04-29T01:19:35.900Z,72.21
2019-04-29T01:22:05.360Z,72.29
2019-04-29T01:24:34.624Z,72.31
2019-04-29T01:27:17.778Z,72.03
2019-04-29T01:29:47.228Z,71.58
2019-04-29T01:32:16.515Z,71.56
2019-04-29T01:34:54.342Z,71.90
2019-04-29T01:37:41.240Z,71.99
2019-04-29T01:40:29.623Z,71.88
2019-04-29T01:42:58.899Z,71.51
2019-04-29T01:45:28.541Z,71.42
2019-04-29T01:47:58.576Z,72.24
2019-04-29T01:50:27.823Z,72.37
2019-04-29T01:52:57.471Z,72.43
2019-04-29T01:55:27.047Z,72.41
2019-04-29T01:57:56.688Z,72.92
2019-04-29T02:00:25.951Z,73.75
2019-04-29T02:02:55.679Z,73.88
2019-04-29T02:05:24.955Z,74.09
2019-04-29T02:07:54.204Z,74.58
2019-04-29T02:10:33.211Z,74.48
2019-04-29T02:13:03.256Z,74.14
2019-04-29T02:15:32.523Z,74.00
2019-04-29T02:18:01.934Z,73.87
2019-04-29T02:20:31.200Z,73.60
2019-04-29T02:23:26.659Z,73.49
2019-04-29T02:25:56.304Z,73.45
2019-04-29T02:28:25.653Z,73.41
2019-04-29T02:30:54.939Z,74.15
2019-04-29T02:33:24.608Z,74.21
2019-04-29T02:35:54.163Z,74.14
2019-04-29T02:38:42.356Z,73.78
2019-04-29T02:41:33.333Z,73.73
2019-04-29T02:44:04.641Z,73.37
2019-04-29T02:46:35.380Z,73.28
2019-04-29T02:49:04.678Z,73.26
2019-04-29T02:51:49.150Z,73.11
2019-04-29T02:54:19.936Z,72.92
2019-04-29T02:56:56.093Z,72.81
2019-04-29T02:59:31.500Z,73.52
2019-04-29T03:02:25.751Z,73.80
2019-04-29T03:05:13.709Z,74.03
2019-04-29T03:07:43.006Z,74.47
2019-04-29T03:10:12.731Z,74.39
2019-04-29T03:12:42.324Z,74.80
2019-04-29T03:15:13.047Z,75.06
2019-04-29T03:17:43.946Z,75.40
2019-04-29T03:20:22.060Z,75.63
2019-04-29T03:23:07.638Z,76.01
2019-04-29T03:25:37.344Z,75.93
2019-04-29T03:28:07.057Z,75.83
2019-04-29T03:30:36.606Z,75.88
2019-04-29T03:33:06.074Z,76.01
2019-04-29T03:35:38.245Z,75.97
2019-04-29T03:38:10.238Z,75.87
2019-04-29T03:40:41.134Z,75.69
2019-04-29T03:43:11.984Z,75.93
2019-04-29T03:45:42.315Z,76.06
2019-04-29T03:48:11.705Z,75.70
2019-04-29T03:50:41.330Z,75.42
2019-04-29T03:53:10.644Z,75.25
2019-04-29T03:55:41.634Z,75.18
2019-04-29T03:58:10.974Z,75.26
2019-04-29T04:00:44.277Z,75.41
2019-04-29T04:03:28.902Z,75.36
2019-04-29T04:06:05.646Z,75.41
2019-04-29T04:08:42.746Z,75.30
2019-04-29T04:11:12.107Z,75.48
2019-04-29T04:13:41.492Z,75.80
2019-04-29T04:16:22.177Z,76.27
2019-04-29T04:19:12.082Z,76.18
2019-04-29T04:21:42.988Z,76.07
2019-04-29T04:24:12.624Z,76.04
2019-04-29T04:26:43.595Z,76.18
2019-04-29T04:29:12.868Z,76.27
2019-04-29T04:31:44.310Z,76.45
2019-04-29T04:34:14.575Z,76.62
2019-04-29T04:36:45.831Z,76.44
2019-04-29T04:39:15.494Z,76.43
2019-04-29T04:41:44.960Z,76.46
2019-04-29T04:44:14.642Z,76.65
2019-04-29T04:46:47.825Z,76.73
2019-04-29T04:49:19.276Z,76.70
2019-04-29T04:51:50.836Z,76.67
2019-04-29T04:54:20.144Z,76.71
2019-04-29T04:56:50.704Z,76.58
2019-04-29T04:59:21.839Z,76.21
2019-04-29T05:01:51.475Z,75.88
2019-04-29T05:04:21.156Z,75.31
2019-04-29T05:06:50.778Z,74.68
2019-04-29T05:09:21.843Z,74.01
2019-04-29T05:11:51.617Z,72.24
2019-04-29T05:14:23.009Z,70.97
2019-04-29T05:16:52.530Z,69.25
2019-04-29T05:19:22.145Z,68.58
2019-04-29T05:21:51.755Z,70.30
2019-04-29T05:24:22.029Z,68.01
2019-04-29T05:26:51.336Z,67.51
2019-04-29T05:29:20.635Z,68.50
2019-04-29T05:31:51.686Z,69.82
2019-04-29T05:34:22.712Z,70.50
2019-04-29T05:37:18.584Z,70.60
2019-04-29T05:39:47.987Z,68.74
2019-04-29T05:42:17.582Z,69.61
2019-04-29T05:45:10.132Z,65.70
2019-04-29T05:47:44.436Z,58.64
2019-04-29T05:50:32.454Z,53.55
2019-04-29T05:53:31.768Z,48.25
2019-04-29T05:56:02.086Z,47.65
2019-04-29T05:58:37.821Z,43.57
2019-04-29T06:01:09.649Z,41.16
2019-04-29T06:03:44.375Z,38.65
2019-04-29T06:06:15.821Z,37.20
2019-04-29T06:08:49.017Z,35.26
2019-04-29T06:11:19.544Z,34.78
2019-04-29T06:13:51.950Z,34.17
2019-04-29T06:16:22.849Z,33.57
2019-04-29T06:18:59.694Z,33.81
2019-04-29T06:21:24.689Z,33.50
2019-04-29T06:23:59.496Z,34.91
2019-04-29T06:26:27.165Z,39.36
2019-04-29T06:28:56.741Z,44.84
2019-04-29T06:31:27.377Z,46.52
2019-04-29T06:34:00.584Z,47.86
2019-04-29T06:36:32.415Z,47.86
2019-04-29T06:39:02.032Z,46.96
2019-04-29T06:41:31.294Z,42.24
2019-04-29T06:44:06.662Z,39.21
2019-04-29T06:46:33.148Z,39.71
2019-04-29T06:49:09.925Z,40.43
2019-04-29T06:51:33.501Z,47.47
2019-04-29T06:54:04.762Z,51.78
2019-04-29T06:56:34.494Z,55.24
2019-04-29T06:59:07.522Z,55.24
2019-04-29T07:01:37.448Z,56.08
2019-04-29T07:04:06.185Z,56.39
2019-04-29T07:06:35.465Z,57.10
2019-04-29T07:09:06.730Z,56.65
2019-04-29T07:11:36.969Z,56.98
2019-04-29T07:14:10.703Z,55.36
2019-04-29T07:16:40.079Z,54.19
2019-04-29T07:19:10.330Z,54.35
2019-04-29T07:21:41.961Z,53.09
2019-04-29T07:24:11.436Z,52.46
2019-04-29T07:26:42.526Z,51.27
2019-04-29T07:29:13.130Z,50.93
2019-04-29T07:31:42.649Z,52.85
2019-04-29T07:34:12.961Z,51.88
2019-04-29T07:36:43.787Z,50.90
2019-04-29T07:39:14.063Z,49.73
2019-04-29T07:41:43.362Z,51.44
2019-04-29T07:44:18.261Z,52.49
2019-04-29T07:46:56.625Z,52.34
2019-04-29T07:49:23.539Z,52.90
2019-04-29T07:51:54.015Z,52.42
2019-04-29T07:54:23.354Z,53.05
2019-04-29T07:56:52.653Z,55.28
2019-04-29T07:59:22.287Z,56.26
2019-04-29T08:01:55.795Z,56.44
2019-04-29T08:04:26.367Z,55.84
2019-04-29T08:06:57.074Z,55.74
2019-04-29T08:09:27.562Z,55.93
2019-04-29T08:11:57.164Z,57.05
2019-04-29T08:14:27.411Z,56.06
2019-04-29T08:16:56.650Z,55.94
2019-04-29T08:19:29.487Z,55.90
2019-04-29T08:21:57.178Z,56.05
2019-04-29T08:24:26.799Z,54.38
2019-04-29T08:26:57.733Z,52.15
2019-04-29T08:29:30.857Z,52.05
2019-04-29T08:32:02.293Z,53.04
2019-04-29T08:34:31.595Z,52.24
2019-04-29T08:37:01.275Z,50.50
2019-04-29T08:39:32.255Z,50.83
2019-04-29T08:42:08.731Z,51.05
2019-04-29T08:44:54.636Z,50.18
2019-04-29T08:47:31.483Z,49.23
2019-04-29T08:49:59.432Z,49.32
2019-04-29T08:52:29.119Z,50.21
2019-04-29T08:54:58.697Z,49.68
2019-04-29T08:57:31.804Z,49.41
2019-04-29T09:00:00.566Z,48.41
2019-04-29T09:02:34.987Z,48.07
2019-04-29T09:05:02.503Z,48.38
2019-04-29T09:07:32.611Z,49.65
2019-04-29T09:10:03.646Z,49.08
2019-04-29T09:12:32.881Z,49.36
2019-04-29T09:15:02.434Z,49.10
2019-04-29T09:17:33.263Z,49.36
2019-04-29T09:20:02.901Z,50.53
2019-04-29T09:22:35.499Z,50.10
2019-04-29T09:25:32.586Z,50.23
2019-04-29T09:28:06.323Z,49.80
2019-04-29T09:30:38.662Z,50.77
2019-04-29T09:33:08.698Z,50.33
2019-04-29T09:35:38.854Z,50.90
2019-04-29T09:38:09.225Z,51.79
2019-04-29T09:40:45.655Z,50.95
2019-04-29T09:43:26.206Z,50.95
2019-04-29T09:46:01.159Z,50.59
2019-04-29T09:48:30.431Z,50.56
2019-04-29T09:51:01.594Z,50.36
2019-04-29T09:53:32.470Z,51.54
2019-04-29T09:56:01.819Z,51.66
2019-04-29T09:58:31.360Z,50.77
2019-04-29T10:01:27.253Z,50.68
2019-04-29T10:04:16.785Z,50.29
2019-04-29T10:06:47.701Z,50.65
2019-04-29T10:09:16.954Z,50.23
2019-04-29T10:11:46.237Z,50.51
2019-04-29T10:14:15.501Z,50.01
2019-04-29T10:17:06.707Z,50.81
2019-04-29T10:19:44.174Z,50.25
2019-04-29T10:22:13.438Z,49.08
2019-04-29T10:24:44.183Z,49.21
2019-04-29T10:27:15.054Z,49.11
2019-04-29T10:29:46.526Z,49.65
2019-04-29T10:32:15.882Z,48.28
2019-04-29T10:34:47.001Z,46.69
2019-04-29T10:37:16.359Z,47.46
2019-04-29T10:40:10.614Z,47.60
2019-04-29T10:42:36.494Z,47.81
2019-04-29T10:45:21.714Z,48.66
2019-04-29T10:48:01.176Z,49.28
2019-04-29T10:50:52.230Z,49.41
2019-04-29T10:53:23.558Z,50.44
2019-04-29T10:55:53.585Z,50.71
2019-04-29T10:58:30.198Z,48.21
2019-04-29T11:01:37.547Z,46.63
2019-04-29T11:04:08.834Z,46.61
2019-04-29T11:06:38.640Z,45.26
2019-04-29T11:09:27.501Z,45.68
2019-04-29T11:11:57.147Z,47.40
2019-04-29T11:14:26.868Z,47.40
2019-04-29T11:16:56.614Z,47.91
2019-04-29T11:19:26.242Z,48.08
2019-04-29T11:21:55.902Z,46.50
2019-04-29T11:24:46.395Z,46.76
2019-04-29T11:27:20.465Z,46.36
2019-04-29T11:29:52.197Z,46.50
2019-04-29T11:32:30.338Z,47.04
2019-04-29T11:35:28.479Z,46.63
2019-04-29T11:37:59.963Z,47.19
2019-04-29T11:40:43.185Z,47.27
2019-04-29T11:43:02.526Z,47.91
2019-04-29T11:45:33.741Z,48.25
2019-04-29T11:48:06.863Z,48.17
2019-04-29T11:50:49.394Z,48.31
2019-04-29T11:53:16.147Z,47.08
2019-04-29T11:55:46.425Z,47.19
2019-04-29T11:58:26.701Z,47.56
2019-04-29T12:01:10.343Z,47.10
2019-04-29T12:03:40.721Z,47.30
2019-04-29T12:06:16.367Z,46.97
2019-04-29T12:08:48.168Z,46.63
2019-04-29T12:11:15.857Z,47.70
2019-04-29T12:14:10.219Z,47.41
2019-04-29T12:16:46.966Z,47.91
2019-04-29T12:19:24.576Z,48.16
2019-04-29T12:21:53.847Z,48.24
2019-04-29T12:24:23.086Z,46.80
2019-04-29T12:26:52.714Z,47.04
2019-04-29T12:29:22.040Z,46.58
2019-04-29T12:32:12.309Z,47.60
2019-04-29T12:34:56.026Z,47.32
2019-04-29T12:37:48.578Z,46.54
2019-04-29T12:40:41.014Z,46.52
2019-04-29T12:43:27.962Z,46.27
2019-04-29T12:46:25.239Z,45.40
2019-04-29T12:48:54.634Z,46.09
2019-04-29T12:51:24.230Z,47.21
2019-04-29T12:53:53.772Z,47.32
2019-04-29T12:56:35.471Z,47.63
2019-04-29T12:59:06.157Z,48.08
2019-04-29T13:01:51.275Z,48.34
2019-04-29T13:04:33.621Z,49.88
2019-04-29T13:07:22.120Z,50.16
2019-04-29T13:09:52.875Z,50.27
2019-04-29T13:12:25.041Z,50.17
2019-04-29T13:15:14.158Z,50.79
2019-04-29T13:18:08.570Z,50.86
2019-04-29T13:20:36.426Z,50.12
2019-04-29T13:23:17.714Z,50.44
2019-04-29T13:25:38.881Z,49.88
2019-04-29T13:28:08.216Z,49.23
2019-04-29T13:30:37.474Z,48.82
2019-04-29T13:33:15.946Z,47.56
2019-04-29T13:35:47.964Z,47.88
2019-04-29T13:38:09.824Z,48.15
2019-04-29T13:40:39.521Z,48.47
2019-04-29T13:43:10.314Z,47.92
2019-04-29T13:45:47.004Z,47.12
2019-04-29T13:48:55.230Z,47.54
2019-04-29T13:51:34.817Z,48.79
2019-04-29T13:53:55.410Z,48.76
2019-04-29T13:56:35.163Z,49.71
2019-04-29T13:58:57.965Z,49.63
2019-04-29T14:02:00.095Z,50.75
2019-04-29T14:04:27.110Z,50.75
2019-04-29T14:06:57.667Z,51.86
2019-04-29T14:09:28.588Z,52.36
2019-04-29T14:12:02.108Z,52.52
2019-04-29T14:14:30.225Z,53.28
2019-04-29T14:17:17.051Z,53.63
2019-04-29T14:19:40.934Z,53.47
2019-04-29T14:22:02.611Z,54.08
2019-04-29T14:24:33.531Z,54.69
2019-04-29T14:27:02.810Z,55.10
2019-04-29T14:29:36.136Z,55.46
2019-04-29T14:32:05.604Z,55.07
2019-04-29T14:34:43.620Z,54.67
2019-04-29T14:37:21.162Z,55.95
2019-04-29T14:39:45.297Z,57.02
2019-04-29T14:42:30.156Z,58.43
2019-04-29T14:45:26.897Z,59.80
2019-04-29T14:48:23.561Z,60.87
2019-04-29T14:50:54.411Z,60.98
2019-04-29T14:53:26.276Z,61.51
2019-04-29T14:55:56.863Z,61.75
2019-04-29T14:58:26.266Z,63.04
2019-04-29T15:01:23.438Z,64.08
2019-04-29T15:03:55.269Z,64.72
2019-04-29T15:06:28.948Z,64.29
2019-04-29T15:08:59.264Z,64.80
2019-04-29T15:11:34.266Z,64.37
2019-04-29T15:14:25.350Z,64.65
2019-04-29T15:17:05.621Z,64.80
2019-04-29T15:20:00.062Z,64.53
2019-04-29T15:22:32.872Z,64.15
2019-04-29T15:25:02.212Z,63.49
2019-04-29T15:27:33.570Z,63.52
2019-04-29T15:30:03.863Z,63.53
2019-04-29T15:32:33.142Z,63.44
2019-04-29T15:35:04.620Z,63.50
2019-04-29T15:37:33.906Z,63.95
2019-04-29T15:40:04.669Z,64.05
2019-04-29T15:42:37.970Z,64.21
2019-04-29T15:45:07.050Z,63.79
2019-04-29T15:47:41.702Z,63.40
2019-04-29T15:50:19.164Z,63.44
2019-04-29T15:52:49.154Z,62.94
2019-04-29T15:55:18.491Z,63.06
2019-04-29T16:00:22.949Z,63.04
2019-04-29T16:02:52.297Z,62.52
2019-04-29T16:08:40.680Z,63.49
2019-04-29T16:11:33.351Z,63.73
2019-04-29T16:14:09.247Z,63.85
2019-04-29T16:16:35.570Z,63.74
2019-04-29T16:19:10.286Z,63.44
2019-04-29T16:21:41.578Z,63.75
2019-04-29T16:24:26.014Z,64.17
2019-04-29T16:26:40.967Z,64.77
2019-04-29T16:29:15.150Z,64.79
2019-04-29T16:31:43.224Z,65.00
2019-04-29T16:34:14.489Z,65.44
2019-04-29T16:36:49.813Z,65.69
2019-04-29T16:39:15.695Z,66.11
2019-04-29T16:42:02.751Z,66.43
2019-04-29T16:44:35.947Z,66.70
2019-04-29T16:47:07.351Z,66.90
2019-04-29T16:49:38.228Z,66.95
2019-04-29T16:52:07.481Z,67.58
2019-04-29T16:54:36.757Z,67.76
2019-04-29T16:57:07.924Z,67.99
2019-04-29T16:59:38.910Z,67.70
2019-04-29T17:02:08.571Z,67.70
2019-04-29T17:04:38.382Z,67.48
2019-04-29T17:07:13.362Z,67.03
2019-04-29T17:10:05.658Z,67.25
2019-04-29T17:12:59.903Z,67.14
2019-04-29T17:15:29.748Z,67.18
2019-04-29T17:17:59.384Z,67.06
2019-04-29T17:20:29.098Z,67.22
2019-04-29T17:22:58.366Z,67.31
2019-04-29T17:25:27.637Z,67.25
2019-04-29T17:28:36.475Z,67.15
2019-04-29T17:31:37.935Z,67.12
2019-04-29T17:34:29.397Z,66.60
2019-04-29T17:35:14.929Z,62.97
2019-04-29T17:35:17.350Z,62.97
2019-04-29T17:36:48.407Z,66.89
2019-04-29T17:39:20.198Z,67.05
2019-04-29T17:41:49.481Z,67.16
2019-04-29T17:44:51.981Z,67.29
2019-04-29T17:47:49.704Z,67.22
2019-04-29T17:50:33.566Z,67.33
2019-04-29T17:53:03.721Z,67.50
2019-04-29T17:55:55.464Z,67.68
2019-04-29T17:58:35.857Z,67.58
2019-04-29T18:01:27.727Z,67.82
2019-04-29T18:04:16.695Z,68.14
2019-04-29T18:06:58.933Z,68.24
2019-04-29T18:09:30.365Z,68.50
2019-04-29T18:12:05.058Z,68.61
2019-04-29T18:14:39.084Z,68.93
2019-04-29T18:17:07.678Z,69.25
2019-04-29T18:19:55.407Z,69.57
2019-04-29T18:22:47.795Z,69.55
2019-04-29T18:25:30.684Z,69.67
2019-04-29T18:28:00.053Z,69.57
2019-04-29T18:30:35.736Z,69.92
2019-04-29T18:33:05.258Z,70.25
2019-04-29T18:35:35.810Z,70.20
2019-04-29T18:38:07.487Z,70.65
2019-04-29T18:40:41.945Z,70.77
2019-04-29T18:43:09.107Z,71.03
2019-04-29T18:45:39.143Z,71.03
2019-04-29T18:48:16.691Z,70.90
2019-04-29T18:50:41.450Z,70.85
2019-04-29T18:53:12.575Z,70.87
2019-04-29T18:55:45.073Z,70.80
2019-04-29T18:58:16.018Z,70.69
2019-04-29T19:00:52.331Z,70.39
2019-04-29T19:03:21.109Z,70.50
2019-04-29T19:05:55.146Z,70.32
2019-04-29T19:08:28.607Z,70.42
2019-04-29T19:10:56.776Z,70.60
2019-04-29T19:13:30.631Z,70.73
2019-04-29T19:16:09.561Z,70.58
2019-04-29T19:18:29.889Z,70.78
2019-04-29T19:20:59.294Z,70.61
2019-04-29T19:23:29.700Z,70.38
2019-04-29T19:25:59.346Z,70.40
2019-04-29T19:28:30.935Z,70.39
2019-04-29T19:31:03.166Z,70.49
2019-04-29T19:33:35.060Z,70.73
2019-04-29T19:36:01.751Z,70.11
2019-04-29T19:38:30.992Z,70.19
2019-04-29T19:41:00.361Z,70.32
2019-04-29T19:43:30.337Z,70.33
2019-04-29T19:45:59.699Z,70.34
2019-04-29T19:48:28.986Z,70.29
2019-04-29T19:51:14.453Z,70.35
2019-04-29T19:53:37.718Z,70.20
2019-04-29T19:56:06.659Z,70.22
2019-04-29T19:58:35.746Z,70.22
2019-04-29T20:01:13.826Z,70.57
2019-04-29T20:03:49.742Z,70.63
2019-04-29T20:06:24.831Z,70.39
2019-04-29T20:08:57.022Z,70.30
2019-04-29T20:11:29.065Z,70.20
2019-04-29T20:14:01.953Z,70.14
2019-04-29T20:16:59.648Z,69.97
2019-04-29T20:19:55.475Z,69.94
2019-04-29T20:22:20.581Z,70.08
2019-04-29T20:24:50.915Z,70.14
2019-04-29T20:27:26.211Z,70.28
2019-04-29T20:29:55.884Z,70.44
2019-04-29T20:32:31.688Z,70.25
2019-04-29T20:35:07.129Z,70.61
2019-04-29T20:37:31.937Z,70.87
2019-04-29T20:40:01.796Z,70.87
2019-04-29T20:42:32.686Z,70.96
2019-04-29T20:45:02.541Z,70.97
2019-04-29T20:47:37.874Z,70.78
2019-04-29T20:50:03.077Z,70.95
2019-04-29T20:52:52.202Z,71.01
2019-04-29T20:55:20.435Z,70.80
2019-04-29T20:57:52.490Z,70.86
2019-04-29T21:00:24.772Z,70.97
2019-04-29T21:02:53.474Z,70.90
2019-04-29T21:05:24.824Z,71.05
2019-04-29T21:08:03.009Z,70.91
2019-04-29T21:10:27.722Z,70.65
2019-04-29T21:13:20.296Z,70.54
2019-04-29T21:15:59.627Z,70.75
2019-04-29T21:18:29.401Z,70.75
2019-04-29T21:20:59.694Z,70.87
2019-04-29T21:23:35.242Z,70.54
2019-04-29T21:26:07.155Z,70.61
2019-04-29T21:28:38.122Z,70.74
2019-04-29T21:31:05.951Z,71.04
2019-04-29T21:33:35.616Z,71.01
2019-04-29T21:36:30.754Z,70.85
2019-04-29T21:39:26.586Z,70.97
2019-04-29T21:42:05.709Z,70.85
2019-04-29T21:44:35.183Z,70.80
2019-04-29T21:47:08.041Z,70.80
2019-04-29T21:49:44.905Z,70.80
2019-04-29T21:52:10.805Z,70.81
2019-04-29T21:54:44.486Z,71.09
2019-04-29T21:57:18.508Z,71.31
2019-04-29T21:59:46.154Z,71.49
2019-04-29T22:02:17.545Z,71.47
2019-04-29T22:04:48.943Z,71.56
2019-04-29T22:07:19.201Z,71.65
2019-04-29T22:09:50.306Z,71.58
2019-04-29T22:12:20.431Z,71.65
2019-04-29T22:14:56.392Z,72.01
2019-04-29T22:17:26.356Z,71.88
2019-04-29T22:19:57.407Z,71.44
2019-04-29T22:22:30.620Z,71.59
2019-04-29T22:25:05.803Z,71.54
2019-04-29T22:27:34.230Z,71.37
2019-04-29T22:30:05.821Z,71.91
2019-04-29T22:32:35.676Z,72.23
2019-04-29T22:35:06.606Z,72.26
2019-04-29T22:37:38.203Z,72.23
2019-04-29T22:40:08.010Z,71.88
2019-04-29T22:42:48.710Z,71.84
2019-04-29T22:45:19.665Z,71.75
2019-04-29T22:47:49.402Z,71.85
2019-04-29T22:50:19.028Z,72.22
2019-04-29T22:52:49.434Z,72.14
2019-04-29T22:55:18.718Z,72.34
2019-04-29T22:57:47.954Z,72.63
2019-04-29T23:00:19.660Z,72.77
2019-04-29T23:02:48.912Z,73.00
2019-04-29T23:05:23.607Z,72.96
2019-04-29T23:07:52.865Z,72.94
2019-04-29T23:10:26.246Z,73.20
2019-04-29T23:12:57.238Z,73.20
2019-04-29T23:15:26.007Z,73.88
2019-04-29T23:17:57.312Z,74.42
2019-04-29T23:20:45.633Z,74.82
2019-04-29T23:23:20.155Z,75.10
2019-04-29T23:25:55.660Z,75.29
2019-04-29T23:28:28.384Z,75.48
2019-04-29T23:30:58.312Z,75.69
2019-04-29T23:33:27.653Z,75.92
2019-04-29T23:35:57.905Z,75.98
2019-04-29T23:38:27.213Z,75.94
2019-04-29T23:40:57.791Z,75.53
2019-04-29T23:43:28.539Z,75.59
2019-04-29T23:46:00.519Z,75.90
2019-04-29T23:48:38.689Z,76.15
2019-04-29T23:51:00.882Z,76.12
2019-04-29T23:53:31.959Z,76.21
2019-04-29T23:56:05.577Z,75.97
2019-04-29T23:58:52.676Z,75.93
